sensor_id;sensor_type;location;lat;lon;timestamp;P1;durP1;ratioP1;P2;durP2;ratioP2
15708;SDS011;7954;51.914;8.420;2023-02-02T00:01:25;10.77;;;4.10;;
15708;SDS011;7954;51.914;8.420;2023-02-02T00:03:53;17.67;;;7.87;;
15708;SDS011;7954;51.914;8.420;2023-02-02T00:06:24;18.20;;;6.10;;
15708;SDS011;7954;51.914;8.420;2023-02-02T00:08:54;9.70;;;4.17;;
15708;SDS011;7954;51.914;8.420;2023-02-02T00:11:23;11.33;;;5.00;;
15708;SDS011;7954;51.914;8.420;2023-02-02T00:13:51;18.13;;;9.90;;
15708;SDS011;7954;51.914;8.420;2023-02-02T00:16:20;21.97;;;10.57;;
15708;SDS011;7954;51.914;8.420;2023-02-02T00:19:01;32.90;;;18.17;;
15708;SDS011;7954;51.914;8.420;2023-02-02T00:21:32;26.37;;;11.97;;
15708;SDS011;7954;51.914;8.420;2023-02-02T00:24:00;9.10;;;5.30;;
15708;SDS011;7954;51.914;8.420;2023-02-02T00:26:28;13.17;;;4.87;;
15708;SDS011;7954;51.914;8.420;2023-02-02T00:28:58;27.37;;;13.33;;
15708;SDS011;7954;51.914;8.420;2023-02-02T00:31:26;18.77;;;7.73;;
15708;SDS011;7954;51.914;8.420;2023-02-02T00:33:54;12.17;;;4.83;;
15708;SDS011;7954;51.914;8.420;2023-02-02T00:36:22;7.67;;;3.20;;
15708;SDS011;7954;51.914;8.420;2023-02-02T00:38:51;12.00;;;3.67;;
15708;SDS011;7954;51.914;8.420;2023-02-02T00:41:19;8.30;;;3.43;;
15708;SDS011;7954;51.914;8.420;2023-02-02T00:43:47;10.33;;;3.70;;
15708;SDS011;7954;51.914;8.420;2023-02-02T00:46:37;12.30;;;5.07;;
15708;SDS011;7954;51.914;8.420;2023-02-02T00:49:05;17.97;;;7.17;;
15708;SDS011;7954;51.914;8.420;2023-02-02T00:51:33;9.07;;;3.07;;
15708;SDS011;7954;51.914;8.420;2023-02-02T00:54:03;8.03;;;3.60;;
15708;SDS011;7954;51.914;8.420;2023-02-02T00:56:31;9.53;;;3.07;;
15708;SDS011;7954;51.914;8.420;2023-02-02T00:58:59;16.20;;;6.40;;
15708;SDS011;7954;51.914;8.420;2023-02-02T01:01:27;9.57;;;3.87;;
15708;SDS011;7954;51.914;8.420;2023-02-02T01:03:56;11.57;;;5.57;;
15708;SDS011;7954;51.914;8.420;2023-02-02T01:06:24;5.63;;;3.13;;
15708;SDS011;7954;51.914;8.420;2023-02-02T01:08:52;14.67;;;5.33;;
15708;SDS011;7954;51.914;8.420;2023-02-02T01:11:22;14.17;;;5.00;;
15708;SDS011;7954;51.914;8.420;2023-02-02T01:13:51;11.27;;;3.53;;
15708;SDS011;7954;51.914;8.420;2023-02-02T01:16:19;7.13;;;2.53;;
15708;SDS011;7954;51.914;8.420;2023-02-02T01:18:48;9.83;;;4.13;;
15708;SDS011;7954;51.914;8.420;2023-02-02T01:21:18;8.97;;;2.80;;
15708;SDS011;7954;51.914;8.420;2023-02-02T01:23:46;7.77;;;2.70;;
15708;SDS011;7954;51.914;8.420;2023-02-02T01:26:15;7.37;;;2.30;;
15708;SDS011;7954;51.914;8.420;2023-02-02T01:28:44;8.33;;;2.83;;
15708;SDS011;7954;51.914;8.420;2023-02-02T01:31:13;8.67;;;3.00;;
15708;SDS011;7954;51.914;8.420;2023-02-02T01:33:44;7.80;;;2.67;;
15708;SDS011;7954;51.914;8.420;2023-02-02T01:36:13;9.60;;;3.30;;
15708;SDS011;7954;51.914;8.420;2023-02-02T01:38:42;9.57;;;3.93;;
15708;SDS011;7954;51.914;8.420;2023-02-02T01:41:11;5.93;;;2.50;;
15708;SDS011;7954;51.914;8.420;2023-02-02T01:43:52;6.47;;;2.53;;
15708;SDS011;7954;51.914;8.420;2023-02-02T01:46:23;10.13;;;3.63;;
15708;SDS011;7954;51.914;8.420;2023-02-02T01:48:54;7.70;;;2.67;;
15708;SDS011;7954;51.914;8.420;2023-02-02T01:51:28;7.87;;;2.60;;
15708;SDS011;7954;51.914;8.420;2023-02-02T01:54:01;7.17;;;2.33;;
15708;SDS011;7954;51.914;8.420;2023-02-02T01:56:32;14.63;;;3.33;;
15708;SDS011;7954;51.914;8.420;2023-02-02T01:59:06;8.50;;;2.40;;
15708;SDS011;7954;51.914;8.420;2023-02-02T02:01:36;6.33;;;2.90;;
15708;SDS011;7954;51.914;8.420;2023-02-02T02:04:03;20.30;;;6.70;;
15708;SDS011;7954;51.914;8.420;2023-02-02T02:06:32;10.40;;;3.00;;
15708;SDS011;7954;51.914;8.420;2023-02-02T02:09:02;10.00;;;3.67;;
15708;SDS011;7954;51.914;8.420;2023-02-02T02:11:33;10.17;;;5.30;;
15708;SDS011;7954;51.914;8.420;2023-02-02T02:18:03;13.27;;;4.10;;
15708;SDS011;7954;51.914;8.420;2023-02-02T02:20:53;11.67;;;5.00;;
15708;SDS011;7954;51.914;8.420;2023-02-02T02:23:59;17.23;;;7.33;;
15708;SDS011;7954;51.914;8.420;2023-02-02T02:27:24;10.30;;;4.80;;
15708;SDS011;7954;51.914;8.420;2023-02-02T02:33:23;5.40;;;2.50;;
15708;SDS011;7954;51.914;8.420;2023-02-02T02:35:56;6.57;;;2.40;;
15708;SDS011;7954;51.914;8.420;2023-02-02T02:38:33;4.80;;;2.20;;
15708;SDS011;7954;51.914;8.420;2023-02-02T02:41:08;8.10;;;2.30;;
15708;SDS011;7954;51.914;8.420;2023-02-02T02:43:40;7.20;;;2.30;;
15708;SDS011;7954;51.914;8.420;2023-02-02T02:46:12;8.67;;;3.17;;
15708;SDS011;7954;51.914;8.420;2023-02-02T02:48:43;7.43;;;2.30;;
15708;SDS011;7954;51.914;8.420;2023-02-02T02:54:08;5.73;;;2.13;;
15708;SDS011;7954;51.914;8.420;2023-02-02T02:56:40;6.43;;;2.63;;
15708;SDS011;7954;51.914;8.420;2023-02-02T02:59:18;7.13;;;2.17;;
15708;SDS011;7954;51.914;8.420;2023-02-02T03:01:54;7.20;;;2.00;;
15708;SDS011;7954;51.914;8.420;2023-02-02T03:04:35;3.27;;;1.90;;
15708;SDS011;7954;51.914;8.420;2023-02-02T03:07:12;6.70;;;2.33;;
15708;SDS011;7954;51.914;8.420;2023-02-02T03:09:44;6.57;;;2.00;;
15708;SDS011;7954;51.914;8.420;2023-02-02T03:12:14;6.57;;;2.50;;
15708;SDS011;7954;51.914;8.420;2023-02-02T03:14:43;4.47;;;1.97;;
15708;SDS011;7954;51.914;8.420;2023-02-02T03:17:11;6.97;;;1.90;;
15708;SDS011;7954;51.914;8.420;2023-02-02T03:19:41;8.60;;;2.40;;
15708;SDS011;7954;51.914;8.420;2023-02-02T03:22:09;6.20;;;2.03;;
15708;SDS011;7954;51.914;8.420;2023-02-02T03:24:37;6.60;;;1.93;;
15708;SDS011;7954;51.914;8.420;2023-02-02T03:27:05;7.50;;;2.43;;
15708;SDS011;7954;51.914;8.420;2023-02-02T03:29:32;8.17;;;2.30;;
15708;SDS011;7954;51.914;8.420;2023-02-02T03:32:01;5.43;;;1.83;;
15708;SDS011;7954;51.914;8.420;2023-02-02T03:34:30;8.13;;;1.80;;
15708;SDS011;7954;51.914;8.420;2023-02-02T03:36:59;8.03;;;2.50;;
15708;SDS011;7954;51.914;8.420;2023-02-02T03:39:26;4.70;;;1.80;;
15708;SDS011;7954;51.914;8.420;2023-02-02T03:41:54;4.90;;;1.93;;
15708;SDS011;7954;51.914;8.420;2023-02-02T03:44:22;7.90;;;1.87;;
15708;SDS011;7954;51.914;8.420;2023-02-02T03:46:51;8.23;;;2.20;;
15708;SDS011;7954;51.914;8.420;2023-02-02T03:49:19;5.73;;;2.23;;
15708;SDS011;7954;51.914;8.420;2023-02-02T03:51:47;6.23;;;2.87;;
15708;SDS011;7954;51.914;8.420;2023-02-02T03:54:17;6.87;;;2.50;;
15708;SDS011;7954;51.914;8.420;2023-02-02T03:56:45;6.40;;;2.27;;
15708;SDS011;7954;51.914;8.420;2023-02-02T03:59:13;8.73;;;3.93;;
15708;SDS011;7954;51.914;8.420;2023-02-02T04:01:41;6.63;;;2.23;;
15708;SDS011;7954;51.914;8.420;2023-02-02T04:04:10;5.53;;;2.53;;
15708;SDS011;7954;51.914;8.420;2023-02-02T04:06:38;7.47;;;2.40;;
15708;SDS011;7954;51.914;8.420;2023-02-02T04:09:06;7.77;;;2.87;;
15708;SDS011;7954;51.914;8.420;2023-02-02T04:11:35;6.07;;;2.53;;
15708;SDS011;7954;51.914;8.420;2023-02-02T04:14:05;7.03;;;2.23;;
15708;SDS011;7954;51.914;8.420;2023-02-02T04:16:33;5.87;;;2.23;;
15708;SDS011;7954;51.914;8.420;2023-02-02T04:19:03;11.50;;;3.87;;
15708;SDS011;7954;51.914;8.420;2023-02-02T04:21:31;10.13;;;4.30;;
15708;SDS011;7954;51.914;8.420;2023-02-02T04:23:59;6.40;;;2.67;;
15708;SDS011;7954;51.914;8.420;2023-02-02T04:26:27;7.27;;;2.93;;
15708;SDS011;7954;51.914;8.420;2023-02-02T04:28:57;7.50;;;3.13;;
15708;SDS011;7954;51.914;8.420;2023-02-02T04:31:25;12.40;;;6.13;;
15708;SDS011;7954;51.914;8.420;2023-02-02T04:33:52;11.97;;;5.83;;
15708;SDS011;7954;51.914;8.420;2023-02-02T04:36:22;11.60;;;5.60;;
15708;SDS011;7954;51.914;8.420;2023-02-02T04:38:51;12.40;;;6.10;;
15708;SDS011;7954;51.914;8.420;2023-02-02T04:41:21;9.07;;;4.10;;
15708;SDS011;7954;51.914;8.420;2023-02-02T04:43:50;13.53;;;5.53;;
15708;SDS011;7954;51.914;8.420;2023-02-02T04:46:19;10.83;;;5.30;;
15708;SDS011;7954;51.914;8.420;2023-02-02T04:48:47;10.17;;;4.60;;
15708;SDS011;7954;51.914;8.420;2023-02-02T04:51:16;10.57;;;3.80;;
15708;SDS011;7954;51.914;8.420;2023-02-02T04:53:44;10.83;;;4.80;;
15708;SDS011;7954;51.914;8.420;2023-02-02T04:56:13;19.20;;;7.17;;
15708;SDS011;7954;51.914;8.420;2023-02-02T04:58:42;9.70;;;5.03;;
15708;SDS011;7954;51.914;8.420;2023-02-02T05:01:11;12.00;;;5.70;;
15708;SDS011;7954;51.914;8.420;2023-02-02T05:03:43;10.27;;;3.10;;
15708;SDS011;7954;51.914;8.420;2023-02-02T05:06:13;9.47;;;2.80;;
15708;SDS011;7954;51.914;8.420;2023-02-02T05:08:42;9.67;;;3.03;;
15708;SDS011;7954;51.914;8.420;2023-02-02T05:11:12;14.43;;;2.97;;
15708;SDS011;7954;51.914;8.420;2023-02-02T05:13:44;7.47;;;2.80;;
15708;SDS011;7954;51.914;8.420;2023-02-02T05:16:12;5.13;;;2.47;;
15708;SDS011;7954;51.914;8.420;2023-02-02T05:18:40;9.30;;;3.50;;
15708;SDS011;7954;51.914;8.420;2023-02-02T05:21:10;5.23;;;2.43;;
15708;SDS011;7954;51.914;8.420;2023-02-02T05:23:37;5.33;;;2.80;;
15708;SDS011;7954;51.914;8.420;2023-02-02T05:26:05;6.50;;;3.30;;
15708;SDS011;7954;51.914;8.420;2023-02-02T05:28:33;9.53;;;3.90;;
15708;SDS011;7954;51.914;8.420;2023-02-02T05:31:04;6.87;;;2.60;;
15708;SDS011;7954;51.914;8.420;2023-02-02T05:33:32;5.40;;;2.30;;
15708;SDS011;7954;51.914;8.420;2023-02-02T05:36:02;8.87;;;3.03;;
15708;SDS011;7954;51.914;8.420;2023-02-02T05:38:33;5.60;;;3.13;;
15708;SDS011;7954;51.914;8.420;2023-02-02T05:41:01;6.27;;;2.33;;
15708;SDS011;7954;51.914;8.420;2023-02-02T05:43:30;9.03;;;3.03;;
15708;SDS011;7954;51.914;8.420;2023-02-02T05:45:59;7.63;;;2.80;;
15708;SDS011;7954;51.914;8.420;2023-02-02T05:48:27;7.90;;;2.93;;
15708;SDS011;7954;51.914;8.420;2023-02-02T05:50:58;6.23;;;2.67;;
15708;SDS011;7954;51.914;8.420;2023-02-02T05:53:29;7.93;;;2.80;;
15708;SDS011;7954;51.914;8.420;2023-02-02T05:56:00;6.53;;;3.07;;
15708;SDS011;7954;51.914;8.420;2023-02-02T05:58:28;9.77;;;2.97;;
15708;SDS011;7954;51.914;8.420;2023-02-02T06:00:55;5.70;;;2.33;;
15708;SDS011;7954;51.914;8.420;2023-02-02T06:03:23;7.00;;;2.80;;
15708;SDS011;7954;51.914;8.420;2023-02-02T06:05:51;6.77;;;2.43;;
15708;SDS011;7954;51.914;8.420;2023-02-02T06:08:19;5.57;;;2.33;;
15708;SDS011;7954;51.914;8.420;2023-02-02T06:10:47;5.60;;;2.33;;
15708;SDS011;7954;51.914;8.420;2023-02-02T06:13:18;6.00;;;2.10;;
15708;SDS011;7954;51.914;8.420;2023-02-02T06:15:47;7.50;;;2.90;;
15708;SDS011;7954;51.914;8.420;2023-02-02T06:18:14;5.87;;;1.80;;
15708;SDS011;7954;51.914;8.420;2023-02-02T06:20:42;4.93;;;1.93;;
15708;SDS011;7954;51.914;8.420;2023-02-02T06:23:12;5.93;;;2.20;;
15708;SDS011;7954;51.914;8.420;2023-02-02T06:25:39;9.10;;;2.67;;
15708;SDS011;7954;51.914;8.420;2023-02-02T06:28:07;7.20;;;2.40;;
15708;SDS011;7954;51.914;8.420;2023-02-02T06:30:37;6.40;;;2.30;;
15708;SDS011;7954;51.914;8.420;2023-02-02T06:33:04;7.67;;;2.43;;
15708;SDS011;7954;51.914;8.420;2023-02-02T06:35:32;6.77;;;2.10;;
15708;SDS011;7954;51.914;8.420;2023-02-02T06:38:00;7.20;;;1.97;;
15708;SDS011;7954;51.914;8.420;2023-02-02T06:40:28;6.50;;;2.37;;
15708;SDS011;7954;51.914;8.420;2023-02-02T06:42:56;5.60;;;2.20;;
15708;SDS011;7954;51.914;8.420;2023-02-02T06:45:25;6.93;;;2.23;;
15708;SDS011;7954;51.914;8.420;2023-02-02T06:47:56;5.23;;;1.90;;
15708;SDS011;7954;51.914;8.420;2023-02-02T06:50:25;3.57;;;1.50;;
15708;SDS011;7954;51.914;8.420;2023-02-02T06:52:53;4.60;;;1.97;;
15708;SDS011;7954;51.914;8.420;2023-02-02T06:55:21;4.37;;;1.63;;
15708;SDS011;7954;51.914;8.420;2023-02-02T06:57:54;4.33;;;1.97;;
15708;SDS011;7954;51.914;8.420;2023-02-02T07:00:23;2.93;;;1.47;;
15708;SDS011;7954;51.914;8.420;2023-02-02T07:02:55;3.47;;;1.80;;
15708;SDS011;7954;51.914;8.420;2023-02-02T07:05:23;5.17;;;1.77;;
15708;SDS011;7954;51.914;8.420;2023-02-02T07:07:56;6.17;;;1.57;;
15708;SDS011;7954;51.914;8.420;2023-02-02T07:10:23;4.47;;;1.40;;
15708;SDS011;7954;51.914;8.420;2023-02-02T07:13:11;1.93;;;1.30;;
15708;SDS011;7954;51.914;8.420;2023-02-02T07:15:39;1.93;;;1.13;;
15708;SDS011;7954;51.914;8.420;2023-02-02T07:18:09;2.90;;;1.40;;
15708;SDS011;7954;51.914;8.420;2023-02-02T07:20:37;2.73;;;1.37;;
15708;SDS011;7954;51.914;8.420;2023-02-02T07:23:06;3.60;;;1.67;;
15708;SDS011;7954;51.914;8.420;2023-02-02T07:25:35;2.57;;;1.10;;
15708;SDS011;7954;51.914;8.420;2023-02-02T07:28:03;2.13;;;1.40;;
15708;SDS011;7954;51.914;8.420;2023-02-02T07:30:31;3.83;;;1.30;;
15708;SDS011;7954;51.914;8.420;2023-02-02T07:32:59;3.13;;;1.10;;
15708;SDS011;7954;51.914;8.420;2023-02-02T07:35:29;2.10;;;1.10;;
15708;SDS011;7954;51.914;8.420;2023-02-02T07:37:57;2.57;;;1.30;;
15708;SDS011;7954;51.914;8.420;2023-02-02T07:40:25;3.70;;;1.50;;
15708;SDS011;7954;51.914;8.420;2023-02-02T07:42:53;3.07;;;1.50;;
15708;SDS011;7954;51.914;8.420;2023-02-02T07:45:21;4.07;;;2.27;;
15708;SDS011;7954;51.914;8.420;2023-02-02T07:48:01;6.77;;;3.63;;
15708;SDS011;7954;51.914;8.420;2023-02-02T07:50:31;4.87;;;2.90;;
15708;SDS011;7954;51.914;8.420;2023-02-02T07:52:59;5.43;;;3.00;;
15708;SDS011;7954;51.914;8.420;2023-02-02T07:55:27;4.83;;;2.63;;
15708;SDS011;7954;51.914;8.420;2023-02-02T07:57:56;7.03;;;3.40;;
15708;SDS011;7954;51.914;8.420;2023-02-02T08:00:24;6.43;;;4.80;;
15708;SDS011;7954;51.914;8.420;2023-02-02T08:02:53;4.43;;;2.47;;
15708;SDS011;7954;51.914;8.420;2023-02-02T08:05:20;5.20;;;2.37;;
15708;SDS011;7954;51.914;8.420;2023-02-02T08:07:51;5.00;;;2.90;;
15708;SDS011;7954;51.914;8.420;2023-02-02T08:10:18;6.27;;;2.80;;
15708;SDS011;7954;51.914;8.420;2023-02-02T08:12:46;3.50;;;1.60;;
15708;SDS011;7954;51.914;8.420;2023-02-02T08:15:14;4.30;;;1.63;;
15708;SDS011;7954;51.914;8.420;2023-02-02T08:17:43;2.97;;;1.60;;
15708;SDS011;7954;51.914;8.420;2023-02-02T08:20:12;1.87;;;1.70;;
15708;SDS011;7954;51.914;8.420;2023-02-02T08:22:40;4.90;;;1.83;;
15708;SDS011;7954;51.914;8.420;2023-02-02T08:25:09;3.93;;;1.70;;
15708;SDS011;7954;51.914;8.420;2023-02-02T08:27:38;2.57;;;1.80;;
15708;SDS011;7954;51.914;8.420;2023-02-02T08:30:06;3.07;;;1.30;;
15708;SDS011;7954;51.914;8.420;2023-02-02T08:32:34;4.70;;;1.80;;
15708;SDS011;7954;51.914;8.420;2023-02-02T08:35:02;4.50;;;1.83;;
15708;SDS011;7954;51.914;8.420;2023-02-02T08:37:30;2.87;;;1.57;;
15708;SDS011;7954;51.914;8.420;2023-02-02T08:39:58;2.83;;;1.50;;
15708;SDS011;7954;51.914;8.420;2023-02-02T08:42:27;3.40;;;1.67;;
15708;SDS011;7954;51.914;8.420;2023-02-02T08:44:55;4.97;;;3.90;;
15708;SDS011;7954;51.914;8.420;2023-02-02T08:47:43;8.37;;;6.30;;
15708;SDS011;7954;51.914;8.420;2023-02-02T08:50:11;5.97;;;4.40;;
15708;SDS011;7954;51.914;8.420;2023-02-02T08:52:39;3.57;;;2.50;;
15708;SDS011;7954;51.914;8.420;2023-02-02T08:55:07;2.67;;;2.03;;
15708;SDS011;7954;51.914;8.420;2023-02-02T08:57:37;2.47;;;1.20;;
15708;SDS011;7954;51.914;8.420;2023-02-02T09:00:05;5.00;;;1.30;;
15708;SDS011;7954;51.914;8.420;2023-02-02T09:02:33;2.60;;;1.40;;
15708;SDS011;7954;51.914;8.420;2023-02-02T09:05:01;4.00;;;1.50;;
15708;SDS011;7954;51.914;8.420;2023-02-02T09:07:30;3.87;;;1.47;;
15708;SDS011;7954;51.914;8.420;2023-02-02T09:09:58;2.80;;;1.70;;
15708;SDS011;7954;51.914;8.420;2023-02-02T09:12:26;3.47;;;1.57;;
15708;SDS011;7954;51.914;8.420;2023-02-02T09:14:55;2.37;;;1.30;;
15708;SDS011;7954;51.914;8.420;2023-02-02T09:17:23;3.13;;;1.70;;
15708;SDS011;7954;51.914;8.420;2023-02-02T09:19:51;2.60;;;1.37;;
15708;SDS011;7954;51.914;8.420;2023-02-02T09:22:19;3.63;;;1.60;;
15708;SDS011;7954;51.914;8.420;2023-02-02T09:24:48;3.13;;;1.50;;
15708;SDS011;7954;51.914;8.420;2023-02-02T09:27:16;3.13;;;1.53;;
15708;SDS011;7954;51.914;8.420;2023-02-02T09:29:44;3.40;;;1.50;;
15708;SDS011;7954;51.914;8.420;2023-02-02T09:32:15;3.20;;;1.63;;
15708;SDS011;7954;51.914;8.420;2023-02-02T09:34:43;3.83;;;1.70;;
15708;SDS011;7954;51.914;8.420;2023-02-02T09:37:11;3.23;;;1.57;;
15708;SDS011;7954;51.914;8.420;2023-02-02T09:39:38;3.43;;;1.67;;
15708;SDS011;7954;51.914;8.420;2023-02-02T09:42:09;2.70;;;1.50;;
15708;SDS011;7954;51.914;8.420;2023-02-02T09:44:58;3.83;;;1.97;;
15708;SDS011;7954;51.914;8.420;2023-02-02T09:50:24;2.77;;;1.30;;
15708;SDS011;7954;51.914;8.420;2023-02-02T09:53:03;3.93;;;1.77;;
15708;SDS011;7954;51.914;8.420;2023-02-02T09:55:37;4.90;;;1.70;;
15708;SDS011;7954;51.914;8.420;2023-02-02T09:58:10;3.17;;;1.47;;
15708;SDS011;7954;51.914;8.420;2023-02-02T10:00:46;3.50;;;1.70;;
15708;SDS011;7954;51.914;8.420;2023-02-02T10:03:22;3.20;;;1.70;;
15708;SDS011;7954;51.914;8.420;2023-02-02T10:05:56;5.90;;;1.87;;
15708;SDS011;7954;51.914;8.420;2023-02-02T10:08:32;3.07;;;1.70;;
15708;SDS011;7954;51.914;8.420;2023-02-02T10:11:18;3.63;;;1.50;;
15708;SDS011;7954;51.914;8.420;2023-02-02T10:13:56;2.27;;;1.17;;
15708;SDS011;7954;51.914;8.420;2023-02-02T10:16:29;3.70;;;2.03;;
15708;SDS011;7954;51.914;8.420;2023-02-02T10:19:00;3.13;;;1.30;;
15708;SDS011;7954;51.914;8.420;2023-02-02T10:21:32;3.67;;;1.63;;
15708;SDS011;7954;51.914;8.420;2023-02-02T10:24:06;3.97;;;1.37;;
15708;SDS011;7954;51.914;8.420;2023-02-02T10:26:42;3.93;;;1.70;;
15708;SDS011;7954;51.914;8.420;2023-02-02T10:29:14;4.77;;;1.70;;
15708;SDS011;7954;51.914;8.420;2023-02-02T10:31:48;2.70;;;1.40;;
15708;SDS011;7954;51.914;8.420;2023-02-02T10:34:27;4.07;;;1.67;;
15708;SDS011;7954;51.914;8.420;2023-02-02T10:37:01;5.67;;;2.10;;
15708;SDS011;7954;51.914;8.420;2023-02-02T10:39:53;3.43;;;1.73;;
15708;SDS011;7954;51.914;8.420;2023-02-02T10:42:33;3.50;;;1.80;;
15708;SDS011;7954;51.914;8.420;2023-02-02T10:45:32;4.83;;;1.77;;
15708;SDS011;7954;51.914;8.420;2023-02-02T10:48:03;4.20;;;1.50;;
15708;SDS011;7954;51.914;8.420;2023-02-02T10:50:40;3.70;;;1.60;;
15708;SDS011;7954;51.914;8.420;2023-02-02T10:53:11;3.90;;;1.57;;
15708;SDS011;7954;51.914;8.420;2023-02-02T10:55:41;4.67;;;2.00;;
15708;SDS011;7954;51.914;8.420;2023-02-02T10:58:19;5.13;;;2.63;;
15708;SDS011;7954;51.914;8.420;2023-02-02T11:00:53;4.77;;;2.50;;
15708;SDS011;7954;51.914;8.420;2023-02-02T11:03:24;4.80;;;2.47;;
15708;SDS011;7954;51.914;8.420;2023-02-02T11:05:56;4.53;;;2.77;;
15708;SDS011;7954;51.914;8.420;2023-02-02T11:08:44;6.83;;;2.50;;
15708;SDS011;7954;51.914;8.420;2023-02-02T11:11:15;4.40;;;2.43;;
15708;SDS011;7954;51.914;8.420;2023-02-02T11:13:47;7.97;;;4.80;;
15708;SDS011;7954;51.914;8.420;2023-02-02T11:16:20;5.30;;;3.40;;
15708;SDS011;7954;51.914;8.420;2023-02-02T11:19:20;6.83;;;3.47;;
15708;SDS011;7954;51.914;8.420;2023-02-02T11:21:51;4.57;;;2.80;;
15708;SDS011;7954;51.914;8.420;2023-02-02T11:24:23;7.63;;;3.60;;
15708;SDS011;7954;51.914;8.420;2023-02-02T11:26:54;4.37;;;2.63;;
15708;SDS011;7954;51.914;8.420;2023-02-02T11:29:26;6.60;;;3.43;;
15708;SDS011;7954;51.914;8.420;2023-02-02T11:31:57;4.43;;;2.80;;
15708;SDS011;7954;51.914;8.420;2023-02-02T11:34:44;5.37;;;2.93;;
15708;SDS011;7954;51.914;8.420;2023-02-02T11:37:14;5.77;;;3.13;;
15708;SDS011;7954;51.914;8.420;2023-02-02T11:39:46;6.60;;;2.93;;
15708;SDS011;7954;51.914;8.420;2023-02-02T11:42:15;4.43;;;2.70;;
15708;SDS011;7954;51.914;8.420;2023-02-02T11:44:45;5.13;;;2.10;;
15708;SDS011;7954;51.914;8.420;2023-02-02T11:47:19;5.40;;;2.10;;
15708;SDS011;7954;51.914;8.420;2023-02-02T11:49:50;5.17;;;1.93;;
15708;SDS011;7954;51.914;8.420;2023-02-02T11:52:27;4.07;;;1.77;;
15708;SDS011;7954;51.914;8.420;2023-02-02T11:54:58;3.87;;;2.13;;
15708;SDS011;7954;51.914;8.420;2023-02-02T11:57:32;3.03;;;1.90;;
15708;SDS011;7954;51.914;8.420;2023-02-02T12:00:14;3.37;;;2.20;;
15708;SDS011;7954;51.914;8.420;2023-02-02T12:02:44;5.93;;;2.63;;
15708;SDS011;7954;51.914;8.420;2023-02-02T12:08:01;6.73;;;3.20;;
15708;SDS011;7954;51.914;8.420;2023-02-02T12:10:31;5.27;;;3.53;;
15708;SDS011;7954;51.914;8.420;2023-02-02T12:13:08;4.93;;;2.80;;
15708;SDS011;7954;51.914;8.420;2023-02-02T12:15:46;2.63;;;2.00;;
15708;SDS011;7954;51.914;8.420;2023-02-02T12:18:37;6.27;;;2.60;;
15708;SDS011;7954;51.914;8.420;2023-02-02T12:21:17;4.37;;;2.33;;
15708;SDS011;7954;51.914;8.420;2023-02-02T12:23:54;4.80;;;2.70;;
15708;SDS011;7954;51.914;8.420;2023-02-02T12:26:36;5.00;;;3.10;;
15708;SDS011;7954;51.914;8.420;2023-02-02T12:29:10;5.77;;;3.90;;
15708;SDS011;7954;51.914;8.420;2023-02-02T12:31:52;8.83;;;4.97;;
15708;SDS011;7954;51.914;8.420;2023-02-02T12:34:34;8.97;;;5.23;;
15708;SDS011;7954;51.914;8.420;2023-02-02T12:37:13;10.70;;;5.13;;
15708;SDS011;7954;51.914;8.420;2023-02-02T12:39:55;7.87;;;4.40;;
15708;SDS011;7954;51.914;8.420;2023-02-02T12:42:40;6.17;;;3.67;;
15708;SDS011;7954;51.914;8.420;2023-02-02T12:45:23;6.10;;;3.27;;
15708;SDS011;7954;51.914;8.420;2023-02-02T12:48:03;3.57;;;2.60;;
15708;SDS011;7954;51.914;8.420;2023-02-02T12:50:53;5.63;;;2.67;;
15708;SDS011;7954;51.914;8.420;2023-02-02T12:53:35;3.63;;;2.10;;
15708;SDS011;7954;51.914;8.420;2023-02-02T12:56:14;4.40;;;2.40;;
15708;SDS011;7954;51.914;8.420;2023-02-02T12:58:52;4.03;;;2.07;;
15708;SDS011;7954;51.914;8.420;2023-02-02T13:01:29;4.20;;;2.63;;
15708;SDS011;7954;51.914;8.420;2023-02-02T13:04:14;3.90;;;1.90;;
15708;SDS011;7954;51.914;8.420;2023-02-02T13:06:59;5.67;;;2.20;;
15708;SDS011;7954;51.914;8.420;2023-02-02T13:09:36;5.17;;;2.30;;
15708;SDS011;7954;51.914;8.420;2023-02-02T13:12:10;6.30;;;2.60;;
15708;SDS011;7954;51.914;8.420;2023-02-02T13:14:42;3.73;;;2.20;;
15708;SDS011;7954;51.914;8.420;2023-02-02T13:17:13;5.33;;;3.00;;
15708;SDS011;7954;51.914;8.420;2023-02-02T13:19:47;4.63;;;2.53;;
15708;SDS011;7954;51.914;8.420;2023-02-02T13:22:20;5.47;;;2.37;;
15708;SDS011;7954;51.914;8.420;2023-02-02T13:24:51;4.33;;;2.33;;
15708;SDS011;7954;51.914;8.420;2023-02-02T13:27:23;3.77;;;2.57;;
15708;SDS011;7954;51.914;8.420;2023-02-02T13:29:54;4.30;;;2.10;;
15708;SDS011;7954;51.914;8.420;2023-02-02T13:32:27;2.20;;;1.90;;
15708;SDS011;7954;51.914;8.420;2023-02-02T13:34:59;4.03;;;2.73;;
15708;SDS011;7954;51.914;8.420;2023-02-02T13:37:31;3.47;;;2.37;;
15708;SDS011;7954;51.914;8.420;2023-02-02T13:40:04;7.07;;;2.50;;
15708;SDS011;7954;51.914;8.420;2023-02-02T13:42:44;3.80;;;2.10;;
15708;SDS011;7954;51.914;8.420;2023-02-02T13:45:20;3.80;;;2.03;;
15708;SDS011;7954;51.914;8.420;2023-02-02T13:48:07;3.30;;;2.20;;
15708;SDS011;7954;51.914;8.420;2023-02-02T13:50:45;5.73;;;2.43;;
15708;SDS011;7954;51.914;8.420;2023-02-02T13:53:29;3.57;;;2.10;;
15708;SDS011;7954;51.914;8.420;2023-02-02T13:56:16;4.50;;;2.40;;
15708;SDS011;7954;51.914;8.420;2023-02-02T13:58:59;5.67;;;2.13;;
15708;SDS011;7954;51.914;8.420;2023-02-02T14:01:36;2.63;;;2.27;;
15708;SDS011;7954;51.914;8.420;2023-02-02T14:04:15;2.87;;;2.00;;
15708;SDS011;7954;51.914;8.420;2023-02-02T14:06:55;2.83;;;1.80;;
15708;SDS011;7954;51.914;8.420;2023-02-02T14:09:25;2.60;;;1.97;;
15708;SDS011;7954;51.914;8.420;2023-02-02T14:11:57;3.00;;;2.00;;
15708;SDS011;7954;51.914;8.420;2023-02-02T14:14:28;3.37;;;1.80;;
15708;SDS011;7954;51.914;8.420;2023-02-02T14:17:01;2.10;;;1.70;;
15708;SDS011;7954;51.914;8.420;2023-02-02T14:19:48;5.43;;;2.33;;
15708;SDS011;7954;51.914;8.420;2023-02-02T14:22:23;2.70;;;1.97;;
15708;SDS011;7954;51.914;8.420;2023-02-02T14:34:25;3.47;;;2.10;;
15708;SDS011;7954;51.914;8.420;2023-02-02T14:36:57;2.97;;;2.13;;
15708;SDS011;7954;51.914;8.420;2023-02-02T14:39:48;4.47;;;2.30;;
15708;SDS011;7954;51.914;8.420;2023-02-02T14:42:27;3.83;;;2.37;;
15708;SDS011;7954;51.914;8.420;2023-02-02T14:45:27;3.47;;;2.23;;
15708;SDS011;7954;51.914;8.420;2023-02-02T14:47:58;2.33;;;2.07;;
15708;SDS011;7954;51.914;8.420;2023-02-02T14:50:32;2.93;;;2.47;;
15708;SDS011;7954;51.914;8.420;2023-02-02T14:53:14;5.10;;;2.63;;
15708;SDS011;7954;51.914;8.420;2023-02-02T14:58:35;3.67;;;2.23;;
15708;SDS011;7954;51.914;8.420;2023-02-02T15:01:07;3.57;;;2.50;;
15708;SDS011;7954;51.914;8.420;2023-02-02T15:03:49;3.37;;;2.57;;
15708;SDS011;7954;51.914;8.420;2023-02-02T15:06:24;3.43;;;2.50;;
15708;SDS011;7954;51.914;8.420;2023-02-02T15:14:49;3.20;;;2.67;;
15708;SDS011;7954;51.914;8.420;2023-02-02T15:17:21;3.27;;;2.93;;
15708;SDS011;7954;51.914;8.420;2023-02-02T15:20:00;3.53;;;2.90;;
15708;SDS011;7954;51.914;8.420;2023-02-02T15:22:34;4.23;;;2.70;;
15708;SDS011;7954;51.914;8.420;2023-02-02T15:25:11;3.93;;;2.30;;
15708;SDS011;7954;51.914;8.420;2023-02-02T15:27:49;3.60;;;2.60;;
15708;SDS011;7954;51.914;8.420;2023-02-02T15:30:26;5.60;;;3.03;;
15708;SDS011;7954;51.914;8.420;2023-02-02T15:32:59;5.07;;;2.80;;
15708;SDS011;7954;51.914;8.420;2023-02-02T15:35:34;3.10;;;2.53;;
15708;SDS011;7954;51.914;8.420;2023-02-02T15:38:04;3.00;;;2.70;;
15708;SDS011;7954;51.914;8.420;2023-02-02T15:40:38;3.00;;;2.47;;
15708;SDS011;7954;51.914;8.420;2023-02-02T15:43:07;4.53;;;2.30;;
15708;SDS011;7954;51.914;8.420;2023-02-02T15:45:40;4.10;;;2.63;;
15708;SDS011;7954;51.914;8.420;2023-02-02T15:48:16;4.53;;;3.07;;
15708;SDS011;7954;51.914;8.420;2023-02-02T15:50:49;4.00;;;2.70;;
15708;SDS011;7954;51.914;8.420;2023-02-02T15:53:21;4.17;;;2.90;;
15708;SDS011;7954;51.914;8.420;2023-02-02T15:55:53;4.47;;;2.73;;
15708;SDS011;7954;51.914;8.420;2023-02-02T15:58:23;4.20;;;2.77;;
15708;SDS011;7954;51.914;8.420;2023-02-02T16:01:01;3.43;;;2.47;;
15708;SDS011;7954;51.914;8.420;2023-02-02T16:03:42;6.70;;;2.67;;
15708;SDS011;7954;51.914;8.420;2023-02-02T16:06:18;4.67;;;3.07;;